KLM380 EKYT-EGSS
Flight info
| Callsign | KLM380 |
|---|---|
| Flight time | 1h 23m |
| Altitude | 36000 |
| Route | AAL N866 UPGAS DCT TIPAN DCT WECOW DCT BINBO DCT AKOKO N866 KUBAX Z150 MEGEL |
| Aircraft | A21N/M-SDE2E3FGHIRWXY/LB1 |
Departure
| Time | 2026-05-05 13:38 |
|---|---|
| Airport | Aalborg Airport (EKYT) |
Arrival
| Time | 2026-05-05 15:02 |
|---|---|
| Airport | London Stansted Airport (EGSS) |
| Time | Latitude | Longitude | Altitude | Speed | Heading |
|---|---|---|---|---|---|
| 2026-05-05 13:15 | 57.08761 | 9.86896 | 22 ft | 0 kts | 33° |
| 2026-05-05 13:27 | 57.08757 | 9.86891 | 21 ft | 4 kts | 33° |
| 2026-05-05 13:27 | 57.08731 | 9.86858 | 24 ft | 5 kts | 33° |
| 2026-05-05 13:27 | 57.08699 | 9.86836 | 25 ft | 5 kts | 351° |
| 2026-05-05 13:27 | 57.08675 | 9.86856 | 24 ft | 0 kts | 318° |
| 2026-05-05 13:28 | 57.08675 | 9.86857 | 24 ft | 0 kts | 318° |
| 2026-05-05 13:30 | 57.08702 | 9.86811 | 24 ft | 12 kts | 319° |
| 2026-05-05 13:30 | 57.08781 | 9.86694 | 21 ft | 15 kts | 320° |
| 2026-05-05 13:31 | 57.08859 | 9.86580 | 21 ft | 15 kts | 322° |
| 2026-05-05 13:31 | 57.08954 | 9.86442 | 21 ft | 18 kts | 321° |
| 2026-05-05 13:31 | 57.09020 | 9.86347 | 21 ft | 18 kts | 321° |
| 2026-05-05 13:31 | 57.09149 | 9.86166 | 21 ft | 17 kts | 323° |
| 2026-05-05 13:32 | 57.09210 | 9.86080 | 21 ft | 16 kts | 323° |
| 2026-05-05 13:32 | 57.09300 | 9.85956 | 21 ft | 16 kts | 323° |
| 2026-05-05 13:32 | 57.09387 | 9.85834 | 21 ft | 15 kts | 322° |
| 2026-05-05 13:32 | 57.09468 | 9.85716 | 20 ft | 15 kts | 330° |
| 2026-05-05 13:33 | 57.09527 | 9.85793 | 19 ft | 11 kts | 80° |
| 2026-05-05 13:33 | 57.09541 | 9.85969 | 21 ft | 15 kts | 83° |
| 2026-05-05 13:33 | 57.09553 | 9.86142 | 25 ft | 12 kts | 83° |
| 2026-05-05 13:33 | 57.09562 | 9.86322 | 25 ft | 17 kts | 84° |
| 2026-05-05 13:34 | 57.09575 | 9.86543 | 24 ft | 17 kts | 83° |
| 2026-05-05 13:34 | 57.09593 | 9.86790 | 23 ft | 23 kts | 83° |
| 2026-05-05 13:34 | 57.09612 | 9.87101 | 20 ft | 25 kts | 83° |
| 2026-05-05 13:34 | 57.09633 | 9.87413 | 20 ft | 24 kts | 82° |
| 2026-05-05 13:35 | 57.09659 | 9.87696 | 21 ft | 19 kts | 73° |
| 2026-05-05 13:35 | 57.09657 | 9.87838 | 25 ft | 3 kts | 172° |
| 2026-05-05 13:35 | 57.09653 | 9.87825 | 25 ft | 1 kts | 260° |
| 2026-05-05 13:35 | 57.09655 | 9.87789 | 26 ft | 7 kts | 267° |
| 2026-05-05 13:36 | 57.09654 | 9.87762 | 24 ft | 0 kts | 262° |
| 2026-05-05 13:37 | 57.09652 | 9.87738 | 24 ft | 10 kts | 262° |
| 2026-05-05 13:37 | 57.09622 | 9.87251 | 19 ft | 65 kts | 263° |
| 2026-05-05 13:38 | 57.09549 | 9.86108 | 23 ft | 117 kts | 263° |
| 2026-05-05 13:38 | 57.09419 | 9.84337 | 72 ft | 155 kts | 266° |
| 2026-05-05 13:38 | 57.09272 | 9.82378 | 479 ft | 162 kts | 266° |
| 2026-05-05 13:38 | 57.09148 | 9.80341 | 1047 ft | 154 kts | 268° |
| 2026-05-05 13:39 | 57.09031 | 9.78453 | 1708 ft | 149 kts | 263° |
| 2026-05-05 13:39 | 57.08487 | 9.76695 | 1953 ft | 179 kts | 217° |
| 2026-05-05 13:39 | 57.07206 | 9.76225 | 2197 ft | 206 kts | 169° |
| 2026-05-05 13:39 | 57.05957 | 9.77693 | 2412 ft | 228 kts | 125° |
| 2026-05-05 13:40 | 57.05475 | 9.80545 | 2599 ft | 247 kts | 85° |
| 2026-05-05 13:40 | 57.05982 | 9.83352 | 2896 ft | 260 kts | 54° |
| 2026-05-05 13:40 | 57.07162 | 9.85920 | 3539 ft | 266 kts | 41° |
| 2026-05-05 13:40 | 57.08524 | 9.88228 | 4320 ft | 267 kts | 40° |
| 2026-05-05 13:41 | 57.09616 | 9.90990 | 5048 ft | 274 kts | 70° |
| 2026-05-05 13:41 | 57.09757 | 9.94483 | 5674 ft | 281 kts | 104° |
| 2026-05-05 13:41 | 57.08838 | 9.97600 | 6374 ft | 281 kts | 139° |
| 2026-05-05 13:41 | 57.07162 | 9.99305 | 7066 ft | 276 kts | 173° |
| 2026-05-05 13:42 | 57.05294 | 9.99064 | 7756 ft | 269 kts | 207° |
| 2026-05-05 13:42 | 57.03859 | 9.97024 | 8467 ft | 261 kts | 239° |
| 2026-05-05 13:42 | 57.03130 | 9.94016 | 9270 ft | 257 kts | 259° |
| 2026-05-05 13:42 | 57.02947 | 9.90814 | 10098 ft | 256 kts | 269° |
| 2026-05-05 13:43 | 57.02895 | 9.87464 | 10534 ft | 271 kts | 269° |
| 2026-05-05 13:43 | 57.02865 | 9.83884 | 10817 ft | 291 kts | 269° |
| 2026-05-05 13:43 | 57.02829 | 9.80051 | 11115 ft | 309 kts | 267° |
| 2026-05-05 13:43 | 57.02317 | 9.76103 | 11382 ft | 329 kts | 250° |
| 2026-05-05 13:44 | 57.01353 | 9.72202 | 11818 ft | 342 kts | 245° |
| 2026-05-05 13:44 | 57.00172 | 9.68369 | 12488 ft | 348 kts | 241° |
| 2026-05-05 13:44 | 56.98872 | 9.64578 | 13135 ft | 353 kts | 240° |
| 2026-05-05 13:44 | 56.97524 | 9.60793 | 13862 ft | 356 kts | 239° |
| 2026-05-05 13:45 | 56.96164 | 9.56986 | 14468 ft | 358 kts | 239° |
| 2026-05-05 13:45 | 56.94806 | 9.53138 | 15074 ft | 361 kts | 240° |
| 2026-05-05 13:45 | 56.93452 | 9.49246 | 15682 ft | 363 kts | 240° |
| 2026-05-05 13:45 | 56.92099 | 9.45314 | 16291 ft | 366 kts | 240° |
| 2026-05-05 13:46 | 56.90743 | 9.41349 | 16907 ft | 369 kts | 240° |
| 2026-05-05 13:46 | 56.89379 | 9.37350 | 17423 ft | 372 kts | 240° |
| 2026-05-05 13:46 | 56.88004 | 9.33320 | 17966 ft | 375 kts | 240° |
| 2026-05-05 13:46 | 56.86619 | 9.29271 | 18466 ft | 377 kts | 240° |
| 2026-05-05 13:47 | 56.85219 | 9.25184 | 18903 ft | 380 kts | 240° |
| 2026-05-05 13:47 | 56.83833 | 9.21150 | 19339 ft | 383 kts | 240° |
| 2026-05-05 13:47 | 56.82401 | 9.16992 | 19782 ft | 386 kts | 240° |
| 2026-05-05 13:47 | 56.80967 | 9.12834 | 20209 ft | 388 kts | 240° |
| 2026-05-05 13:48 | 56.79522 | 9.08654 | 20632 ft | 391 kts | 240° |
| 2026-05-05 13:48 | 56.78065 | 9.04444 | 21042 ft | 393 kts | 240° |
| 2026-05-05 13:48 | 56.76594 | 9.00204 | 21472 ft | 396 kts | 240° |
| 2026-05-05 13:48 | 56.75115 | 8.95947 | 21904 ft | 398 kts | 240° |
| 2026-05-05 13:49 | 56.73626 | 8.91668 | 22342 ft | 401 kts | 240° |
| 2026-05-05 13:49 | 56.72130 | 8.87375 | 22766 ft | 403 kts | 240° |
| 2026-05-05 13:49 | 56.70617 | 8.83044 | 23170 ft | 406 kts | 240° |
| 2026-05-05 13:49 | 56.69098 | 8.78704 | 23569 ft | 408 kts | 239° |
| 2026-05-05 13:50 | 56.67564 | 8.74327 | 23883 ft | 411 kts | 239° |
| 2026-05-05 13:50 | 56.66021 | 8.69935 | 24161 ft | 414 kts | 239° |
| 2026-05-05 13:50 | 56.64482 | 8.65561 | 24470 ft | 416 kts | 239° |
| 2026-05-05 13:50 | 56.62898 | 8.61068 | 24814 ft | 418 kts | 239° |
| 2026-05-05 13:51 | 56.61330 | 8.56630 | 25138 ft | 419 kts | 239° |
| 2026-05-05 13:51 | 56.59766 | 8.52210 | 25459 ft | 420 kts | 239° |
| 2026-05-05 13:51 | 56.58190 | 8.47763 | 25882 ft | 419 kts | 239° |
| 2026-05-05 13:51 | 56.56614 | 8.43328 | 26331 ft | 417 kts | 239° |
| 2026-05-05 13:52 | 56.55047 | 8.38927 | 26739 ft | 414 kts | 239° |
| 2026-05-05 13:52 | 56.53483 | 8.34540 | 27167 ft | 413 kts | 239° |
| 2026-05-05 13:52 | 56.51924 | 8.30175 | 27539 ft | 412 kts | 239° |
| 2026-05-05 13:52 | 56.50366 | 8.25818 | 27892 ft | 412 kts | 239° |
| 2026-05-05 13:53 | 56.48801 | 8.21450 | 28251 ft | 411 kts | 239° |
| 2026-05-05 13:53 | 56.47283 | 8.17150 | 28609 ft | 410 kts | 240° |
| 2026-05-05 13:53 | 56.45790 | 8.12770 | 28946 ft | 409 kts | 240° |
| 2026-05-05 13:53 | 56.44316 | 8.08363 | 29314 ft | 408 kts | 241° |
| 2026-05-05 13:54 | 56.42859 | 8.03976 | 29635 ft | 407 kts | 241° |
| 2026-05-05 13:54 | 56.41399 | 7.99583 | 29954 ft | 407 kts | 241° |
| 2026-05-05 13:54 | 56.39941 | 7.95215 | 30236 ft | 406 kts | 241° |
| 2026-05-05 13:54 | 56.38482 | 7.90860 | 30485 ft | 405 kts | 241° |
| 2026-05-05 13:55 | 56.37020 | 7.86519 | 30729 ft | 405 kts | 241° |
| 2026-05-05 13:55 | 56.35557 | 7.82187 | 30979 ft | 404 kts | 240° |
| 2026-05-05 13:55 | 56.34092 | 7.77862 | 31199 ft | 404 kts | 240° |
| 2026-05-05 13:55 | 56.32645 | 7.73595 | 31392 ft | 403 kts | 240° |
| 2026-05-05 13:56 | 56.31181 | 7.69289 | 31576 ft | 404 kts | 240° |
| 2026-05-05 13:56 | 56.29714 | 7.64983 | 31783 ft | 403 kts | 240° |
| 2026-05-05 13:56 | 56.28245 | 7.60675 | 32008 ft | 403 kts | 240° |
| 2026-05-05 13:56 | 56.26909 | 7.56766 | 32188 ft | 402 kts | 240° |
| 2026-05-05 13:57 | 56.25466 | 7.52550 | 32393 ft | 402 kts | 240° |
| 2026-05-05 13:57 | 56.24024 | 7.48345 | 32570 ft | 401 kts | 240° |
| 2026-05-05 13:57 | 56.22559 | 7.44078 | 32764 ft | 401 kts | 240° |
| 2026-05-05 13:57 | 56.21087 | 7.39802 | 32886 ft | 402 kts | 240° |
| 2026-05-05 13:58 | 56.19613 | 7.35525 | 33042 ft | 402 kts | 240° |
| 2026-05-05 13:58 | 56.18142 | 7.31264 | 33233 ft | 401 kts | 240° |
| 2026-05-05 13:58 | 56.16670 | 7.27011 | 33407 ft | 401 kts | 240° |
| 2026-05-05 13:58 | 56.15198 | 7.22763 | 33573 ft | 400 kts | 240° |
| 2026-05-05 13:59 | 56.12254 | 7.14291 | 33877 ft | 400 kts | 240° |
| 2026-05-05 13:59 | 56.10798 | 7.10110 | 33997 ft | 400 kts | 240° |
| 2026-05-05 14:00 | 56.06996 | 6.99227 | 34002 ft | 403 kts | 240° |
| 2026-05-05 14:00 | 56.03523 | 6.89331 | 34002 ft | 403 kts | 240° |
| 2026-05-05 14:01 | 56.00538 | 6.80859 | 34009 ft | 403 kts | 240° |
| 2026-05-05 14:01 | 55.97543 | 6.72388 | 33999 ft | 403 kts | 240° |
| 2026-05-05 14:02 | 55.94562 | 6.63984 | 33999 ft | 403 kts | 240° |
| 2026-05-05 14:02 | 55.91762 | 6.56117 | 33999 ft | 403 kts | 239° |
| 2026-05-05 14:03 | 55.88980 | 6.48324 | 34000 ft | 403 kts | 239° |
| 2026-05-05 14:03 | 55.85966 | 6.39911 | 33999 ft | 403 kts | 239° |
| 2026-05-05 14:04 | 55.82942 | 6.31499 | 33996 ft | 403 kts | 239° |
| 2026-05-05 14:04 | 55.79916 | 6.23108 | 33999 ft | 403 kts | 239° |
| 2026-05-05 14:05 | 55.76886 | 6.14736 | 33999 ft | 403 kts | 239° |
| 2026-05-05 14:05 | 55.73845 | 6.06364 | 33998 ft | 403 kts | 239° |
| 2026-05-05 14:06 | 55.70800 | 5.98008 | 33998 ft | 403 kts | 239° |
| 2026-05-05 14:06 | 55.67750 | 5.89667 | 33998 ft | 403 kts | 239° |
| 2026-05-05 14:07 | 55.64712 | 5.81389 | 33997 ft | 403 kts | 239° |
| 2026-05-05 14:07 | 55.61650 | 5.73070 | 33996 ft | 405 kts | 239° |
| 2026-05-05 14:08 | 55.58558 | 5.64701 | 33995 ft | 406 kts | 239° |
| 2026-05-05 14:08 | 55.55458 | 5.56339 | 34001 ft | 406 kts | 238° |
| 2026-05-05 14:09 | 55.52434 | 5.48208 | 33993 ft | 405 kts | 238° |
| 2026-05-05 14:09 | 55.49331 | 5.39895 | 33993 ft | 405 kts | 238° |
| 2026-05-05 14:10 | 55.46183 | 5.31649 | 33992 ft | 406 kts | 234° |
| 2026-05-05 14:10 | 55.42245 | 5.24551 | 33995 ft | 410 kts | 224° |
| 2026-05-05 14:11 | 55.37803 | 5.18197 | 33991 ft | 413 kts | 221° |
| 2026-05-05 14:11 | 55.33247 | 5.11983 | 33992 ft | 415 kts | 221° |
| 2026-05-05 14:12 | 55.28683 | 5.05774 | 33988 ft | 414 kts | 221° |
| 2026-05-05 14:12 | 55.24021 | 4.99793 | 33994 ft | 417 kts | 214° |
| 2026-05-05 14:13 | 55.19002 | 4.94770 | 33988 ft | 418 kts | 212° |
| 2026-05-05 14:13 | 55.13872 | 4.89931 | 33995 ft | 420 kts | 211° |
| 2026-05-05 14:14 | 55.08700 | 4.85112 | 33993 ft | 422 kts | 211° |
| 2026-05-05 14:14 | 55.03517 | 4.80277 | 33989 ft | 422 kts | 211° |
| 2026-05-05 14:15 | 54.98342 | 4.75446 | 33988 ft | 422 kts | 211° |
| 2026-05-05 14:15 | 54.93207 | 4.70659 | 33991 ft | 422 kts | 211° |
| 2026-05-05 14:16 | 54.88142 | 4.65951 | 33991 ft | 423 kts | 210° |
| 2026-05-05 14:16 | 54.82929 | 4.61120 | 33990 ft | 425 kts | 210° |
| 2026-05-05 14:17 | 54.77706 | 4.56296 | 33991 ft | 425 kts | 210° |
| 2026-05-05 14:17 | 54.73362 | 4.52295 | 33989 ft | 425 kts | 210° |
| 2026-05-05 14:18 | 54.68141 | 4.47499 | 33992 ft | 425 kts | 210° |
| 2026-05-05 14:18 | 54.62902 | 4.42698 | 33993 ft | 427 kts | 210° |
| 2026-05-05 14:19 | 54.57640 | 4.37892 | 33990 ft | 428 kts | 209° |
| 2026-05-05 14:19 | 54.52389 | 4.33111 | 33988 ft | 428 kts | 209° |
| 2026-05-05 14:20 | 54.47152 | 4.28356 | 33989 ft | 428 kts | 209° |
| 2026-05-05 14:20 | 54.41886 | 4.23589 | 33981 ft | 428 kts | 209° |
| 2026-05-05 14:21 | 54.36583 | 4.18801 | 33996 ft | 431 kts | 208° |
| 2026-05-05 14:21 | 54.31270 | 4.14020 | 33996 ft | 431 kts | 208° |
| 2026-05-05 14:22 | 54.25951 | 4.09247 | 33990 ft | 431 kts | 208° |
| 2026-05-05 14:22 | 54.20960 | 4.04782 | 33987 ft | 431 kts | 208° |
| 2026-05-05 14:23 | 54.15850 | 4.00222 | 33991 ft | 431 kts | 208° |
| 2026-05-05 14:23 | 54.10536 | 3.95494 | 33991 ft | 430 kts | 208° |
| 2026-05-05 14:24 | 54.05226 | 3.90783 | 33988 ft | 430 kts | 208° |
| 2026-05-05 14:24 | 53.99919 | 3.86088 | 33988 ft | 430 kts | 208° |
| 2026-05-05 14:25 | 53.94605 | 3.81401 | 33990 ft | 430 kts | 208° |
| 2026-05-05 14:25 | 53.89312 | 3.76747 | 33988 ft | 425 kts | 209° |
| 2026-05-05 14:26 | 53.84073 | 3.72154 | 33990 ft | 423 kts | 209° |
| 2026-05-05 14:26 | 53.78847 | 3.67582 | 33994 ft | 423 kts | 209° |
| 2026-05-05 14:27 | 53.73651 | 3.63049 | 33992 ft | 424 kts | 208° |
| 2026-05-05 14:27 | 53.68370 | 3.58455 | 33981 ft | 428 kts | 209° |
| 2026-05-05 14:28 | 53.63121 | 3.53907 | 33987 ft | 420 kts | 209° |
| 2026-05-05 14:28 | 53.57926 | 3.49416 | 33988 ft | 419 kts | 209° |
| 2026-05-05 14:29 | 53.52734 | 3.44938 | 33988 ft | 419 kts | 208° |
| 2026-05-05 14:29 | 53.47548 | 3.40478 | 33988 ft | 419 kts | 208° |
| 2026-05-05 14:30 | 53.42363 | 3.36031 | 33987 ft | 418 kts | 208° |
| 2026-05-05 14:30 | 53.37174 | 3.31594 | 33988 ft | 418 kts | 208° |
| 2026-05-05 14:31 | 53.32017 | 3.27196 | 33979 ft | 418 kts | 208° |
| 2026-05-05 14:31 | 53.26824 | 3.22780 | 33976 ft | 419 kts | 208° |
| 2026-05-05 14:32 | 53.21631 | 3.18373 | 33973 ft | 418 kts | 208° |
| 2026-05-05 14:32 | 53.16452 | 3.13986 | 33971 ft | 416 kts | 208° |
| 2026-05-05 14:33 | 53.11296 | 3.09632 | 33972 ft | 415 kts | 208° |
| 2026-05-05 14:33 | 53.06144 | 3.05300 | 33971 ft | 415 kts | 208° |
| 2026-05-05 14:34 | 53.00978 | 3.00971 | 33978 ft | 416 kts | 208° |
| 2026-05-05 14:34 | 52.95817 | 2.96571 | 33965 ft | 416 kts | 212° |
| 2026-05-05 14:35 | 52.91227 | 2.90789 | 33977 ft | 415 kts | 221° |
| 2026-05-05 14:35 | 52.86916 | 2.84416 | 33977 ft | 415 kts | 223° |
| 2026-05-05 14:36 | 52.82691 | 2.77993 | 33977 ft | 415 kts | 223° |
| 2026-05-05 14:36 | 52.78428 | 2.71549 | 33977 ft | 415 kts | 223° |
| 2026-05-05 14:37 | 52.74145 | 2.65132 | 33898 ft | 416 kts | 223° |
| 2026-05-05 14:37 | 52.71989 | 2.61917 | 33272 ft | 418 kts | 223° |
| 2026-05-05 14:37 | 52.69838 | 2.58714 | 32620 ft | 417 kts | 222° |
| 2026-05-05 14:38 | 52.67684 | 2.55512 | 31984 ft | 415 kts | 222° |
| 2026-05-05 14:38 | 52.65539 | 2.52328 | 31337 ft | 415 kts | 221° |
| 2026-05-05 14:38 | 52.63394 | 2.49147 | 30690 ft | 414 kts | 221° |
| 2026-05-05 14:38 | 52.61253 | 2.45977 | 30028 ft | 414 kts | 221° |
| 2026-05-05 14:39 | 52.59107 | 2.42805 | 29228 ft | 414 kts | 221° |
| 2026-05-05 14:39 | 52.56964 | 2.39641 | 28510 ft | 413 kts | 221° |
| 2026-05-05 14:39 | 52.54830 | 2.36496 | 27841 ft | 411 kts | 221° |
| 2026-05-05 14:39 | 52.52702 | 2.33363 | 27087 ft | 411 kts | 221° |
| 2026-05-05 14:40 | 52.50566 | 2.30222 | 26344 ft | 413 kts | 221° |
| 2026-05-05 14:40 | 52.48407 | 2.27052 | 25599 ft | 420 kts | 221° |
| 2026-05-05 14:40 | 52.46210 | 2.23831 | 24787 ft | 428 kts | 221° |
| 2026-05-05 14:40 | 52.43974 | 2.20557 | 23946 ft | 433 kts | 221° |
| 2026-05-05 14:41 | 52.41757 | 2.17315 | 23280 ft | 431 kts | 221° |
| 2026-05-05 14:41 | 52.39535 | 2.14069 | 22648 ft | 425 kts | 221° |
| 2026-05-05 14:41 | 52.37324 | 2.10831 | 22140 ft | 430 kts | 223° |
| 2026-05-05 14:41 | 52.35256 | 2.07192 | 21598 ft | 442 kts | 233° |
| 2026-05-05 14:42 | 52.33724 | 2.02837 | 21007 ft | 441 kts | 244° |
| 2026-05-05 14:42 | 52.32487 | 1.98275 | 20508 ft | 437 kts | 246° |
| 2026-05-05 14:42 | 52.31302 | 1.93708 | 20006 ft | 435 kts | 246° |
| 2026-05-05 14:42 | 52.30128 | 1.89188 | 19510 ft | 431 kts | 246° |
| 2026-05-05 14:43 | 52.28952 | 1.84698 | 19012 ft | 428 kts | 246° |
| 2026-05-05 14:43 | 52.27775 | 1.80231 | 18520 ft | 427 kts | 246° |
| 2026-05-05 14:43 | 52.26598 | 1.75784 | 17994 ft | 426 kts | 246° |
| 2026-05-05 14:43 | 52.25418 | 1.71345 | 17486 ft | 426 kts | 246° |
| 2026-05-05 14:44 | 52.24255 | 1.66981 | 17002 ft | 424 kts | 246° |
| 2026-05-05 14:44 | 52.23080 | 1.62578 | 16516 ft | 421 kts | 246° |
| 2026-05-05 14:44 | 52.21913 | 1.58221 | 16035 ft | 418 kts | 246° |
| 2026-05-05 14:44 | 52.20752 | 1.53888 | 15552 ft | 415 kts | 246° |
| 2026-05-05 14:45 | 52.19599 | 1.49599 | 15070 ft | 412 kts | 246° |
| 2026-05-05 14:45 | 52.18454 | 1.45344 | 14593 ft | 408 kts | 246° |
| 2026-05-05 14:45 | 52.17316 | 1.41126 | 14125 ft | 405 kts | 246° |
| 2026-05-05 14:45 | 52.16186 | 1.36943 | 13700 ft | 398 kts | 246° |
| 2026-05-05 14:46 | 52.15089 | 1.32892 | 13410 ft | 383 kts | 246° |
| 2026-05-05 14:46 | 52.14031 | 1.28987 | 12996 ft | 373 kts | 246° |
| 2026-05-05 14:46 | 52.12992 | 1.25162 | 12590 ft | 364 kts | 246° |
| 2026-05-05 14:46 | 52.12015 | 1.21419 | 12212 ft | 354 kts | 251° |
| 2026-05-05 14:47 | 52.11300 | 1.17668 | 12007 ft | 340 kts | 255° |
| 2026-05-05 14:47 | 52.10689 | 1.14023 | 11807 ft | 327 kts | 256° |
| 2026-05-05 14:47 | 52.10114 | 1.10519 | 11628 ft | 315 kts | 256° |
| 2026-05-05 14:47 | 52.09559 | 1.07148 | 11442 ft | 303 kts | 256° |
| 2026-05-05 14:48 | 52.09020 | 1.03890 | 11147 ft | 296 kts | 255° |
| 2026-05-05 14:48 | 52.08483 | 1.00657 | 10687 ft | 295 kts | 256° |
| 2026-05-05 14:48 | 52.07956 | 0.97498 | 10353 ft | 290 kts | 256° |
| 2026-05-05 14:48 | 52.07429 | 0.94351 | 10143 ft | 288 kts | 256° |
| 2026-05-05 14:49 | 52.06904 | 0.91211 | 9954 ft | 288 kts | 255° |
| 2026-05-05 14:49 | 52.06376 | 0.88068 | 9734 ft | 288 kts | 255° |
| 2026-05-05 14:49 | 52.05848 | 0.84932 | 9519 ft | 287 kts | 255° |
| 2026-05-05 14:49 | 52.05320 | 0.81805 | 9318 ft | 286 kts | 256° |
| 2026-05-05 14:50 | 52.04794 | 0.78691 | 9112 ft | 285 kts | 255° |
| 2026-05-05 14:50 | 52.04269 | 0.75588 | 8906 ft | 285 kts | 256° |
| 2026-05-05 14:50 | 52.03745 | 0.72490 | 8705 ft | 285 kts | 256° |
| 2026-05-05 14:50 | 52.03215 | 0.69375 | 8508 ft | 284 kts | 256° |
| 2026-05-05 14:51 | 52.02689 | 0.66289 | 8300 ft | 283 kts | 256° |
| 2026-05-05 14:51 | 52.02172 | 0.63249 | 8106 ft | 283 kts | 256° |
| 2026-05-05 14:51 | 52.01698 | 0.60162 | 7968 ft | 281 kts | 262° |
| 2026-05-05 14:51 | 52.01450 | 0.56990 | 7475 ft | 285 kts | 267° |
| 2026-05-05 14:52 | 52.01292 | 0.53788 | 7048 ft | 283 kts | 267° |
| 2026-05-05 14:52 | 52.01150 | 0.50618 | 6611 ft | 282 kts | 268° |
| 2026-05-05 14:52 | 52.01008 | 0.47449 | 6181 ft | 280 kts | 267° |
| 2026-05-05 14:52 | 52.00862 | 0.44326 | 6002 ft | 275 kts | 267° |
| 2026-05-05 14:53 | 52.00716 | 0.41231 | 5987 ft | 275 kts | 267° |
| 2026-05-05 14:53 | 52.00568 | 0.38126 | 5989 ft | 276 kts | 267° |
| 2026-05-05 14:53 | 52.00419 | 0.35014 | 5991 ft | 276 kts | 266° |
| 2026-05-05 14:53 | 52.00267 | 0.31909 | 5989 ft | 276 kts | 267° |
| 2026-05-05 14:54 | 52.00066 | 0.28849 | 5989 ft | 277 kts | 259° |
| 2026-05-05 14:54 | 51.99344 | 0.25980 | 5991 ft | 276 kts | 234° |
| 2026-05-05 14:54 | 51.98061 | 0.23665 | 5994 ft | 278 kts | 224° |
| 2026-05-05 14:54 | 51.96634 | 0.21515 | 5975 ft | 280 kts | 223° |
| 2026-05-05 14:55 | 51.95188 | 0.19388 | 5489 ft | 282 kts | 222° |
| 2026-05-05 14:55 | 51.93745 | 0.17260 | 5076 ft | 280 kts | 222° |
| 2026-05-05 14:55 | 51.92317 | 0.15142 | 4688 ft | 277 kts | 223° |
| 2026-05-05 14:55 | 51.90903 | 0.13039 | 4293 ft | 275 kts | 223° |
| 2026-05-05 14:56 | 51.89503 | 0.10951 | 3914 ft | 273 kts | 223° |
| 2026-05-05 14:56 | 51.88107 | 0.08869 | 3540 ft | 273 kts | 223° |
| 2026-05-05 14:56 | 51.86717 | 0.06793 | 3169 ft | 271 kts | 223° |
| 2026-05-05 14:56 | 51.85335 | 0.04733 | 2848 ft | 268 kts | 223° |
| 2026-05-05 14:57 | 51.83963 | 0.02689 | 2797 ft | 268 kts | 223° |
| 2026-05-05 14:57 | 51.82541 | 0.00732 | 2717 ft | 266 kts | 212° |
| 2026-05-05 14:57 | 51.80862 | -0.00057 | 2603 ft | 243 kts | 176° |
| 2026-05-05 14:57 | 51.79351 | 0.00812 | 2131 ft | 226 kts | 137° |
| 2026-05-05 14:58 | 51.78278 | 0.02499 | 2101 ft | 205 kts | 128° |
| 2026-05-05 14:58 | 51.77633 | 0.04348 | 2321 ft | 181 kts | 94° |
| 2026-05-05 14:58 | 51.77853 | 0.06312 | 2507 ft | 181 kts | 66° |
| 2026-05-05 14:58 | 51.78430 | 0.08047 | 2495 ft | 171 kts | 55° |
| 2026-05-05 14:59 | 51.79192 | 0.09480 | 2500 ft | 167 kts | 43° |
| 2026-05-05 14:59 | 51.80007 | 0.10723 | 2504 ft | 158 kts | 43° |
| 2026-05-05 14:59 | 51.80794 | 0.11912 | 2322 ft | 152 kts | 44° |
| 2026-05-05 14:59 | 51.81564 | 0.13063 | 2109 ft | 151 kts | 42° |
| 2026-05-05 15:00 | 51.82328 | 0.14213 | 1898 ft | 150 kts | 42° |
| 2026-05-05 15:00 | 51.82834 | 0.14973 | 1748 ft | 150 kts | 42° |
| 2026-05-05 15:00 | 51.83857 | 0.16507 | 1487 ft | 150 kts | 43° |
| 2026-05-05 15:00 | 51.84621 | 0.17654 | 1292 ft | 150 kts | 42° |
| 2026-05-05 15:01 | 51.85383 | 0.18797 | 1052 ft | 149 kts | 43° |
| 2026-05-05 15:01 | 51.86139 | 0.19932 | 839 ft | 148 kts | 42° |
| 2026-05-05 15:01 | 51.86897 | 0.21069 | 642 ft | 148 kts | 44° |
| 2026-05-05 15:01 | 51.87638 | 0.22184 | 408 ft | 144 kts | 43° |
| 2026-05-05 15:02 | 51.88345 | 0.23247 | 335 ft | 126 kts | 43° |
| 2026-05-05 15:02 | 51.88856 | 0.24011 | 338 ft | 51 kts | 43° |
| 2026-05-05 15:02 | 51.88956 | 0.24167 | 353 ft | 25 kts | 46° |
| 2026-05-05 15:02 | 51.89087 | 0.24486 | 344 ft | 24 kts | 67° |
| 2026-05-05 15:03 | 51.89154 | 0.24760 | 356 ft | 12 kts | 65° |
| 2026-05-05 15:03 | 51.89165 | 0.24827 | 348 ft | 5 kts | 92° |
| 2026-05-05 15:03 | 51.89159 | 0.24870 | 353 ft | 5 kts | 109° |
| 2026-05-05 15:03 | 51.89167 | 0.24959 | 349 ft | 11 kts | 58° |
| 2026-05-05 15:04 | 51.89207 | 0.25026 | 351 ft | 12 kts | 55° |
| 2026-05-05 15:04 | 51.89246 | 0.25154 | 350 ft | 10 kts | 91° |
| 2026-05-05 15:04 | 51.89223 | 0.25202 | 348 ft | 6 kts | 139° |
| 2026-05-05 15:04 | 51.89182 | 0.25268 | 349 ft | 10 kts | 129° |
| 2026-05-05 15:05 | 51.89123 | 0.25414 | 352 ft | 2 kts | 48° |
| 2026-05-05 15:05 | 51.89138 | 0.25443 | 350 ft | 3 kts | 53° |
| 2026-05-05 15:05 | 51.89151 | 0.25473 | 353 ft | 6 kts | 54° |
| 2026-05-05 15:06 | 51.89160 | 0.25494 | 355 ft | 0 kts | 55° |